createdAt,value
2023-03-28T00:02:06.028Z,93829.37
2023-03-28T00:04:32.470Z,93846.45
2023-03-28T00:06:58.831Z,93838.38
2023-03-28T00:09:25.253Z,93854.77
2023-03-28T00:11:51.625Z,93858.32
2023-03-28T00:14:18.019Z,93872.48
2023-03-28T00:16:44.379Z,93878.10
2023-03-28T00:19:10.775Z,93890.50
2023-03-28T00:21:37.200Z,93891.11
2023-03-28T00:24:03.599Z,93907.53
2023-03-28T00:26:30.017Z,93917.66
2023-03-28T00:28:56.434Z,93921.69
2023-03-28T00:31:22.860Z,93940.18
2023-03-28T00:33:49.197Z,93946.61
2023-03-28T00:36:15.551Z,93949.79
2023-03-28T00:38:41.944Z,93949.61
2023-03-28T00:41:08.330Z,93967.97
2023-03-28T00:43:34.736Z,93961.66
2023-03-28T00:46:08.991Z,93961.81
2023-03-28T00:48:27.525Z,93964.70
2023-03-28T00:50:53.891Z,93965.80
2023-03-28T00:53:20.301Z,93970.02
2023-03-28T00:55:46.654Z,93972.59
2023-03-28T00:58:13.072Z,93970.30
2023-03-28T01:00:39.453Z,93971.58
2023-03-28T01:03:05.918Z,93981.88
2023-03-28T01:05:32.277Z,93979.91
2023-03-28T01:07:58.636Z,93977.33
2023-03-28T01:10:24.985Z,93975.26
2023-03-28T01:12:51.421Z,93975.73
2023-03-28T01:15:17.817Z,93984.27
2023-03-28T01:17:44.221Z,93981.00
2023-03-28T01:20:10.553Z,93995.79
2023-03-28T01:22:36.970Z,93983.39
2023-03-28T01:25:03.315Z,93985.15
2023-03-28T01:27:29.744Z,93994.16
2023-03-28T01:29:56.076Z,94001.53
2023-03-28T01:32:22.528Z,93998.64
2023-03-28T01:34:48.837Z,93985.44
2023-03-28T01:37:15.284Z,93994.59
2023-03-28T01:39:41.647Z,94012.11
2023-03-28T01:42:08.040Z,94021.12
2023-03-28T01:44:34.422Z,93994.84
2023-03-28T01:47:00.820Z,93991.49
2023-03-28T01:49:27.191Z,93995.66
2023-03-28T01:51:53.588Z,93984.55
2023-03-28T01:54:19.956Z,94001.91
2023-03-28T01:56:46.506Z,93992.08
2023-03-28T01:59:12.705Z,94007.18
2023-03-28T02:01:39.186Z,94009.75
2023-03-28T02:04:05.482Z,93995.72
2023-03-28T02:06:31.882Z,94002.63
2023-03-28T02:08:58.253Z,94009.00
2023-03-28T02:11:24.663Z,94004.35
2023-03-28T02:13:51.017Z,94012.35
2023-03-28T02:16:17.429Z,94010.56
2023-03-28T02:18:43.813Z,93999.33
2023-03-28T02:21:10.197Z,94002.37
2023-03-28T02:23:36.548Z,93990.27
2023-03-28T02:26:02.949Z,93968.04
2023-03-28T02:28:29.311Z,93993.84
2023-03-28T02:30:55.775Z,93994.00
2023-03-28T02:33:22.122Z,93991.55
2023-03-28T02:35:48.661Z,94000.08
2023-03-28T02:38:14.993Z,94005.23
2023-03-28T02:40:41.416Z,94008.73
2023-03-28T02:43:07.775Z,93975.88
2023-03-28T02:45:34.273Z,94001.02
2023-03-28T02:48:00.681Z,94012.28
2023-03-28T02:50:27.013Z,94011.47
2023-03-28T02:52:53.392Z,94013.88
2023-03-28T02:55:19.801Z,94015.17
2023-03-28T02:57:46.190Z,94014.86
2023-03-28T03:00:12.703Z,94005.85
2023-03-28T03:02:39.038Z,94008.14
2023-03-28T03:05:05.382Z,94009.63
2023-03-28T03:07:31.732Z,94015.86
2023-03-28T03:09:58.128Z,94020.58
2023-03-28T03:12:24.500Z,94021.20
2023-03-28T03:14:50.963Z,94009.50
2023-03-28T03:17:17.304Z,94015.59
2023-03-28T03:19:43.694Z,94011.73
2023-03-28T03:22:10.063Z,94023.15
2023-03-28T03:24:36.472Z,94025.72
2023-03-28T03:27:02.868Z,94028.80
2023-03-28T03:29:39.469Z,94041.66
2023-03-28T03:31:55.598Z,94040.37
2023-03-28T03:34:21.950Z,94047.59
2023-03-28T03:36:48.338Z,94052.42
2023-03-28T03:39:14.698Z,94070.63
2023-03-28T03:41:41.104Z,94068.67
2023-03-28T03:44:07.485Z,94047.50
2023-03-28T03:46:33.959Z,94080.45
2023-03-28T03:49:00.270Z,94089.80
2023-03-28T03:51:26.680Z,94088.17
2023-03-28T03:53:53.056Z,94092.50
2023-03-28T03:56:19.439Z,94101.03
2023-03-28T03:58:45.827Z,94104.08
2023-03-28T04:01:12.229Z,94113.08
2023-03-28T04:03:38.601Z,94111.45
2023-03-28T04:06:05.008Z,94120.92
2023-03-28T04:08:31.364Z,94113.08
2023-03-28T04:10:57.790Z,94132.73
2023-03-28T04:13:24.124Z,94137.53
2023-03-28T04:15:50.556Z,94137.41
2023-03-28T04:18:16.934Z,94138.47
2023-03-28T04:20:43.347Z,94148.84
2023-03-28T04:23:09.680Z,94160.77
2023-03-28T04:25:36.069Z,94153.27
2023-03-28T04:28:02.414Z,94145.27
2023-03-28T04:30:28.813Z,94147.03
2023-03-28T04:32:55.180Z,94148.05
2023-03-28T04:35:21.638Z,94159.97
2023-03-28T04:37:47.954Z,94162.74
2023-03-28T04:40:50.369Z,94172.69
2023-03-28T04:43:16.781Z,94177.70
2023-03-28T04:45:43.167Z,94187.46
2023-03-28T04:48:09.612Z,94185.83
2023-03-28T04:50:36.079Z,94197.95
2023-03-28T04:53:02.375Z,94210.55
2023-03-28T04:55:28.731Z,94218.27
2023-03-28T04:57:55.138Z,94219.44
2023-03-28T05:00:21.509Z,94224.66
2023-03-28T05:02:48.024Z,94236.57
2023-03-28T05:05:14.264Z,94225.33
2023-03-28T05:07:40.711Z,94228.09
2023-03-28T05:10:07.050Z,94234.48
2023-03-28T05:12:33.440Z,94233.13
2023-03-28T05:14:59.818Z,94243.27
2023-03-28T05:17:26.269Z,94242.53
2023-03-28T05:19:52.626Z,94248.97
2023-03-28T05:22:19.022Z,94242.61
2023-03-28T05:24:45.390Z,94239.21
2023-03-28T05:27:11.901Z,94250.99
2023-03-28T05:29:38.278Z,94247.95
2023-03-28T05:32:04.757Z,94249.86
2023-03-28T05:34:31.056Z,94255.83
2023-03-28T05:36:57.471Z,94264.30
2023-03-28T05:39:23.839Z,94267.46
2023-03-28T05:41:50.252Z,94269.25
2023-03-28T05:44:18.679Z,94273.62
2023-03-28T05:46:43.004Z,94275.27
2023-03-28T05:49:09.347Z,94280.06
2023-03-28T05:51:35.799Z,94286.30
2023-03-28T05:54:02.168Z,94290.44
2023-03-28T05:56:28.580Z,94281.62
2023-03-28T05:58:54.945Z,94286.45
2023-03-28T06:01:22.516Z,94278.30
2023-03-28T06:03:47.772Z,94288.13
2023-03-28T06:06:14.076Z,94285.91
2023-03-28T06:08:40.470Z,94290.23
2023-03-28T06:11:06.899Z,94287.54
2023-03-28T06:13:33.258Z,94298.91
2023-03-28T06:15:59.717Z,94303.12
2023-03-28T06:18:26.095Z,94304.05
2023-03-28T06:20:52.496Z,94302.22
2023-03-28T06:23:18.871Z,94307.80
2023-03-28T06:25:45.294Z,94310.72
2023-03-28T06:28:11.685Z,94305.03
2023-03-28T06:30:38.168Z,94316.48
2023-03-28T06:33:04.588Z,94321.60
2023-03-28T06:35:30.968Z,94334.68
2023-03-28T06:37:57.352Z,94332.97
2023-03-28T06:40:23.848Z,94335.50
2023-03-28T06:42:50.203Z,94336.56
2023-03-28T06:45:16.612Z,94336.83
2023-03-28T06:47:43.013Z,94336.91
2023-03-28T06:50:09.421Z,94336.16
2023-03-28T06:52:35.777Z,94337.22
2023-03-28T06:55:02.234Z,94309.31
2023-03-28T06:57:28.536Z,94347.86
2023-03-28T06:59:54.975Z,94348.75
2023-03-28T07:02:21.363Z,94346.94
2023-03-28T07:04:47.720Z,94354.55
2023-03-28T07:07:14.091Z,94364.11
2023-03-28T07:09:40.499Z,94370.93
2023-03-28T07:12:06.954Z,94341.98
2023-03-28T07:14:33.291Z,94379.76
2023-03-28T07:16:59.666Z,94386.33
2023-03-28T07:19:26.047Z,94391.09
2023-03-28T07:21:52.398Z,94388.59
2023-03-28T07:24:18.801Z,94393.05
2023-03-28T07:26:45.142Z,94386.39
2023-03-28T07:29:11.647Z,94387.88
2023-03-28T07:31:38.029Z,94386.70
2023-03-28T07:34:04.411Z,94394.29
2023-03-28T07:36:30.757Z,94398.00
2023-03-28T07:38:57.130Z,94388.11
2023-03-28T07:41:23.475Z,94392.98
2023-03-28T07:43:49.888Z,94398.37
2023-03-28T07:46:16.378Z,94400.88
2023-03-28T07:48:42.640Z,94407.88
2023-03-28T07:51:08.999Z,94410.47
2023-03-28T07:53:35.389Z,94416.05
2023-03-28T07:56:01.748Z,94408.20
2023-03-28T07:58:28.139Z,94408.20
2023-03-28T08:00:54.484Z,94419.41
2023-03-28T08:03:20.929Z,94429.16
2023-03-28T08:05:47.269Z,94429.34
2023-03-28T08:08:13.765Z,94424.22
2023-03-28T08:10:40.104Z,94429.25
2023-03-28T08:13:06.510Z,94418.67
2023-03-28T08:15:32.907Z,94425.05
2023-03-28T08:17:59.303Z,94423.28
2023-03-28T08:20:25.616Z,94421.64
2023-03-28T08:22:52.013Z,94420.37
2023-03-28T08:25:18.343Z,94420.37
2023-03-28T08:27:45.765Z,94440.05
2023-03-28T08:30:12.133Z,94446.77
2023-03-28T08:32:38.576Z,94451.45
2023-03-28T08:35:04.867Z,94447.78
2023-03-28T08:37:31.248Z,94461.03
2023-03-28T08:39:57.608Z,94457.09
2023-03-28T08:42:24.001Z,94464.67
2023-03-28T08:44:50.388Z,94472.63
2023-03-28T08:47:16.757Z,94468.34
2023-03-28T08:49:43.189Z,94468.03
2023-03-28T08:52:09.558Z,94465.92
2023-03-28T08:54:35.901Z,94471.27
2023-03-28T08:57:02.373Z,94470.33
2023-03-28T08:59:28.706Z,94472.94
2023-03-28T09:01:55.136Z,94481.20
2023-03-28T09:04:21.529Z,94472.94
2023-03-28T09:06:47.849Z,94475.52
2023-03-28T09:09:14.191Z,94472.11
2023-03-28T09:11:40.572Z,94482.16
2023-03-28T09:14:06.912Z,94477.52
2023-03-28T09:16:33.363Z,94482.69
2023-03-28T09:18:59.676Z,94484.44
2023-03-28T09:21:26.054Z,94493.34
2023-03-28T09:23:52.415Z,94495.32
2023-03-28T09:26:18.834Z,94503.45
2023-03-28T09:28:45.194Z,94499.55
2023-03-28T09:31:11.583Z,94495.77
2023-03-28T09:33:37.968Z,94495.77
2023-03-28T09:36:04.369Z,94539.02
2023-03-28T09:38:30.669Z,94514.60
2023-03-28T09:40:57.198Z,94507.59
2023-03-28T09:43:23.432Z,94508.17
2023-03-28T09:45:49.844Z,94507.92
2023-03-28T09:48:19.011Z,94507.92
2023-03-28T09:50:42.569Z,94509.70
2023-03-28T09:53:08.919Z,94509.70
2023-03-28T09:55:35.783Z,94511.09
2023-03-28T09:58:01.706Z,94508.53
2023-03-28T10:00:28.089Z,94509.36
2023-03-28T10:02:54.460Z,94513.37
2023-03-28T10:05:20.847Z,94499.91
2023-03-28T10:07:47.203Z,94499.91
2023-03-28T10:10:13.632Z,94506.09
2023-03-28T10:12:39.986Z,94509.05
2023-03-28T10:15:06.380Z,94490.20
2023-03-28T10:17:34.221Z,94490.20
2023-03-28T10:19:59.116Z,94487.46
2023-03-28T10:22:25.524Z,94494.20
2023-03-28T10:24:51.883Z,94477.09
2023-03-28T10:27:18.236Z,94500.72
2023-03-28T10:29:44.886Z,94500.72
2023-03-28T10:32:11.242Z,94486.06
2023-03-28T10:34:37.627Z,94486.06
2023-03-28T10:37:03.972Z,94499.01
2023-03-28T10:39:30.368Z,94503.16
2023-03-28T10:41:56.701Z,94494.56
2023-03-28T10:44:23.102Z,94491.83
2023-03-28T10:46:49.607Z,94491.83
2023-03-28T10:49:18.063Z,94520.09
2023-03-28T10:51:44.402Z,94515.26
2023-03-28T10:54:10.940Z,94515.26
2023-03-28T10:56:37.253Z,94540.19
2023-03-28T10:59:03.631Z,94548.33
2023-03-28T11:01:32.654Z,94537.19
2023-03-28T11:03:56.425Z,94532.03
2023-03-28T11:06:22.706Z,94518.34
2023-03-28T11:08:49.107Z,94501.23
2023-03-28T11:11:15.509Z,94515.53
2023-03-28T11:13:41.913Z,94522.88
2023-03-28T11:16:08.357Z,94522.88
2023-03-28T11:18:34.700Z,94535.59
2023-03-28T11:21:01.240Z,94535.59
2023-03-28T11:23:27.445Z,94519.13
2023-03-28T11:25:53.908Z,94512.67
2023-03-28T11:28:20.296Z,94512.67
2023-03-28T11:30:46.629Z,94530.27
2023-03-28T11:33:13.028Z,94496.14
2023-03-28T11:35:39.551Z,94496.14
2023-03-28T11:38:05.839Z,94519.90
2023-03-28T11:40:32.189Z,94519.90
2023-03-28T11:42:58.565Z,94497.17
2023-03-28T11:45:37.533Z,94519.63
2023-03-28T11:47:51.420Z,94517.64
2023-03-28T11:50:17.668Z,94522.05
2023-03-28T11:52:44.047Z,94485.74
2023-03-28T11:55:11.535Z,94533.33
2023-03-28T11:57:36.803Z,94533.05
2023-03-28T12:00:03.144Z,94529.17
2023-03-28T12:02:29.595Z,94498.16
2023-03-28T12:04:55.928Z,94503.85
2023-03-28T12:07:22.333Z,94493.67
2023-03-28T12:09:48.832Z,94529.33
2023-03-28T12:12:15.232Z,94529.33
2023-03-28T12:14:41.576Z,94537.67
2023-03-28T12:17:08.024Z,94520.55
2023-03-28T12:19:34.329Z,94531.13
2023-03-28T12:22:00.695Z,94536.98
2023-03-28T12:24:27.056Z,94536.98
2023-03-28T12:26:55.927Z,94546.84
2023-03-28T12:29:19.842Z,94550.33
2023-03-28T12:31:46.233Z,94553.65
2023-03-28T12:34:12.576Z,94562.59
2023-03-28T12:36:38.951Z,94523.78
2023-03-28T12:39:05.355Z,94523.78
2023-03-28T12:41:31.771Z,94556.15
2023-03-28T12:43:58.186Z,94546.34
2023-03-28T12:46:24.590Z,94555.42
2023-03-28T12:48:50.906Z,94374.19
2023-03-28T12:51:18.498Z,94547.40
2023-03-28T12:53:43.679Z,94556.51
2023-03-28T12:56:10.065Z,94555.16
2023-03-28T12:58:36.421Z,94555.92
2023-03-28T13:01:03.013Z,94568.78
2023-03-28T13:03:29.277Z,94550.72
2023-03-28T13:05:55.662Z,94565.36
2023-03-28T13:08:23.727Z,94564.73
2023-03-28T13:10:48.391Z,94570.91
2023-03-28T13:13:14.778Z,94570.91
2023-03-28T13:15:41.157Z,94580.28
2023-03-28T13:18:07.538Z,94573.26
2023-03-28T13:20:33.983Z,94577.77
2023-03-28T13:23:00.318Z,94579.26
2023-03-28T13:25:26.737Z,94583.74
2023-03-28T13:27:53.106Z,94580.77
2023-03-28T13:30:19.490Z,94581.20
2023-03-28T13:32:45.924Z,94589.97
2023-03-28T13:35:12.288Z,94588.84
2023-03-28T13:37:38.642Z,94598.07
2023-03-28T13:40:05.014Z,94597.66
2023-03-28T13:42:31.355Z,94589.39
2023-03-28T13:44:57.832Z,94595.38
2023-03-28T13:47:26.054Z,94602.13
2023-03-28T13:49:52.434Z,94593.68
2023-03-28T13:52:18.798Z,94593.73
2023-03-28T13:54:45.215Z,94605.94
2023-03-28T13:57:11.585Z,94605.20
2023-03-28T13:59:37.951Z,94599.27
2023-03-28T14:02:04.315Z,94600.01
2023-03-28T14:04:30.679Z,94602.14
2023-03-28T14:06:57.087Z,94613.08
2023-03-28T14:09:23.459Z,94612.50
2023-03-28T14:11:49.850Z,94608.30
2023-03-28T14:14:16.229Z,94608.77
2023-03-28T14:16:42.633Z,94620.09
2023-03-28T14:19:09.010Z,94610.87
2023-03-28T14:21:35.389Z,94627.19
2023-03-28T14:24:01.774Z,94620.70
2023-03-28T14:26:28.200Z,94617.30
2023-03-28T14:28:54.607Z,94618.19
2023-03-28T14:31:20.980Z,94612.54
2023-03-28T14:33:47.890Z,94615.95
2023-03-28T14:36:13.683Z,94631.47
2023-03-28T14:38:40.065Z,94629.84
2023-03-28T14:41:06.419Z,94630.23
2023-03-28T14:43:32.803Z,94631.27
2023-03-28T14:45:59.194Z,94639.48
2023-03-28T14:48:25.560Z,94639.20
2023-03-28T14:50:53.495Z,94638.61
2023-03-28T14:53:18.331Z,94653.01
2023-03-28T14:55:44.671Z,94655.78
2023-03-28T14:58:11.057Z,94659.73
2023-03-28T15:00:37.456Z,94655.78
2023-03-28T15:03:03.904Z,94654.89
2023-03-28T15:05:30.184Z,94658.71
2023-03-28T15:07:56.532Z,94659.19
2023-03-28T15:10:22.989Z,94634.50
2023-03-28T15:12:52.355Z,94634.50
2023-03-28T15:15:18.810Z,94639.73
2023-03-28T15:17:45.190Z,94658.75
2023-03-28T15:20:11.636Z,94665.36
2023-03-28T15:22:37.874Z,94674.86
2023-03-28T15:25:04.562Z,94671.80
2023-03-28T15:27:30.944Z,94646.81
2023-03-28T15:29:57.291Z,94680.41
2023-03-28T15:32:23.698Z,94674.74
2023-03-28T15:34:50.049Z,94673.72
2023-03-28T15:37:16.393Z,94667.17
2023-03-28T15:39:42.800Z,94667.17
2023-03-28T15:42:09.137Z,94698.02
2023-03-28T15:44:35.525Z,94700.06
2023-03-28T15:47:01.879Z,94704.00
2023-03-28T15:49:28.279Z,94703.72
2023-03-28T15:51:54.616Z,94706.52
2023-03-28T15:54:30.711Z,94706.52
2023-03-28T15:56:47.372Z,94729.09
2023-03-28T15:59:13.719Z,94738.97
2023-03-28T16:01:40.119Z,94738.97
2023-03-28T16:04:06.525Z,94754.86
2023-03-28T16:06:35.023Z,94755.42
2023-03-28T16:08:59.216Z,94768.17
2023-03-28T16:11:25.590Z,94765.24
2023-03-28T16:13:51.964Z,94772.61
2023-03-28T16:16:18.847Z,94786.16
2023-03-28T16:18:44.755Z,94778.80
2023-03-28T16:21:11.106Z,94796.22
2023-03-28T16:26:03.833Z,94785.80
2023-03-28T16:28:30.232Z,94794.78
2023-03-28T16:30:56.562Z,94799.47
2023-03-28T16:33:22.982Z,94798.91
2023-03-28T16:35:49.383Z,94805.45
2023-03-28T16:38:15.702Z,94805.56
2023-03-28T16:40:42.046Z,94811.49
2023-03-28T16:43:08.444Z,94821.05
2023-03-28T16:45:34.795Z,94820.38
2023-03-28T16:48:01.215Z,94787.66
2023-03-28T16:50:27.518Z,94829.41
2023-03-28T16:52:53.913Z,94830.91
2023-03-28T16:55:20.433Z,94836.80
2023-03-28T16:57:46.687Z,94836.80
2023-03-28T17:00:13.001Z,94853.20
2023-03-28T17:02:39.549Z,94857.06
2023-03-28T17:05:05.744Z,94862.34
2023-03-28T17:07:32.129Z,94852.54
2023-03-28T17:09:58.497Z,94870.23
2023-03-28T17:12:24.903Z,94875.81
2023-03-28T17:14:51.264Z,94876.12
2023-03-28T17:17:17.660Z,94876.12
2023-03-28T17:19:43.979Z,94885.77
2023-03-28T17:22:10.392Z,94885.77
2023-03-28T17:24:36.760Z,94895.63
2023-03-28T17:27:03.135Z,94897.89
2023-03-28T17:29:29.485Z,94906.31
2023-03-28T17:31:55.868Z,94894.48
2023-03-28T17:34:22.221Z,94902.95
2023-03-28T17:36:48.617Z,94902.95
2023-03-28T17:39:14.982Z,94905.28
2023-03-28T17:41:41.412Z,94919.13
2023-03-28T17:44:07.744Z,94919.13
2023-03-28T17:46:34.182Z,94936.36
2023-03-28T17:49:00.475Z,94936.36
2023-03-28T17:51:26.899Z,94966.02
2023-03-28T17:53:53.213Z,94966.02
2023-03-28T17:56:19.604Z,94962.95
2023-03-28T17:58:45.980Z,94975.02
2023-03-28T18:01:12.456Z,94975.02
2023-03-28T18:03:38.993Z,94993.98
2023-03-28T18:06:05.188Z,94994.26
2023-03-28T18:08:31.597Z,94999.06
2023-03-28T18:10:57.975Z,94999.06
2023-03-28T18:13:24.319Z,95001.89
2023-03-28T18:15:50.741Z,95015.93
2023-03-28T18:18:17.046Z,95010.56
2023-03-28T18:20:43.439Z,95026.03
2023-03-28T18:23:09.790Z,95011.88
2023-03-28T18:25:36.160Z,95029.79
2023-03-28T18:28:02.506Z,95036.38
2023-03-28T18:30:28.892Z,95032.50
2023-03-28T18:32:55.363Z,95032.50
2023-03-28T18:35:21.690Z,95038.13
2023-03-28T18:37:48.038Z,95042.35
2023-03-28T18:40:14.493Z,95050.55
2023-03-28T18:42:40.806Z,95053.05
2023-03-28T18:45:07.199Z,95053.05
2023-03-28T18:47:33.607Z,95050.58
2023-03-28T18:49:59.957Z,95055.52
2023-03-28T18:52:27.696Z,95057.27
2023-03-28T18:54:52.721Z,95067.58
2023-03-28T18:57:19.113Z,95069.47
2023-03-28T18:59:45.459Z,95057.41
2023-03-28T19:02:11.827Z,95057.41
2023-03-28T19:04:38.186Z,95072.86
2023-03-28T19:07:04.533Z,95081.53
2023-03-28T19:09:30.955Z,95082.02
2023-03-28T19:11:57.309Z,95088.58
2023-03-28T19:14:23.707Z,95085.89
2023-03-28T19:16:50.098Z,95087.75
2023-03-28T19:19:16.453Z,95090.10
2023-03-28T19:21:42.792Z,95086.84
2023-03-28T19:24:09.203Z,95085.05
2023-03-28T19:26:35.557Z,95089.66
2023-03-28T19:29:01.944Z,95086.36
2023-03-28T19:31:28.292Z,95090.58
2023-03-28T19:33:54.692Z,95091.64
2023-03-28T19:36:21.167Z,95100.91
2023-03-28T19:38:47.481Z,95092.58
2023-03-28T19:41:15.722Z,95100.91
2023-03-28T19:43:40.248Z,95104.41
2023-03-28T19:46:06.596Z,95099.95
2023-03-28T19:48:32.961Z,95100.89
2023-03-28T19:50:59.318Z,95100.16
2023-03-28T19:53:25.719Z,95104.50
2023-03-28T19:55:52.071Z,95099.94
2023-03-28T19:58:18.446Z,95085.75
2023-03-28T20:00:44.794Z,95085.75
2023-03-28T20:03:11.230Z,95100.28
2023-03-28T20:05:37.545Z,95110.22
2023-03-28T20:08:03.935Z,95115.97
2023-03-28T20:10:30.301Z,95125.69
2023-03-28T20:12:56.694Z,95128.16
2023-03-28T20:15:23.035Z,95119.71
2023-03-28T20:17:49.459Z,95121.83
2023-03-28T20:20:17.077Z,95124.04
2023-03-28T20:22:42.181Z,95123.70
2023-03-28T20:25:08.523Z,95122.06
2023-03-28T20:27:34.910Z,95127.67
2023-03-28T20:30:01.255Z,95129.42
2023-03-28T20:32:27.661Z,95136.36
2023-03-28T20:34:53.990Z,95132.70
2023-03-28T20:37:20.390Z,95134.81
2023-03-28T20:39:46.731Z,95131.91
2023-03-28T20:42:13.136Z,95130.85
2023-03-28T20:44:39.509Z,95128.73
2023-03-28T20:47:05.978Z,95138.45
2023-03-28T20:49:32.258Z,95138.31
2023-03-28T20:51:58.655Z,95142.19
2023-03-28T20:54:25.009Z,95143.60
2023-03-28T20:56:51.468Z,95154.83
2023-03-28T20:59:17.749Z,95158.00
2023-03-28T21:01:44.149Z,95152.39
2023-03-28T21:04:10.508Z,95156.25
2023-03-28T21:06:36.910Z,95157.17
2023-03-28T21:09:03.261Z,95153.41
2023-03-28T21:11:29.696Z,95153.55
2023-03-28T21:13:56.083Z,95155.75
2023-03-28T21:16:22.509Z,95150.38
2023-03-28T21:18:48.914Z,95150.38
2023-03-28T21:21:15.314Z,95151.66
2023-03-28T21:23:41.681Z,95154.33
2023-03-28T21:26:08.087Z,95159.48
2023-03-28T21:28:34.455Z,95171.08
2023-03-28T21:31:01.040Z,95174.61
2023-03-28T21:33:27.262Z,95177.74
2023-03-28T21:35:53.642Z,95183.84
2023-03-28T21:38:19.987Z,95186.30
2023-03-28T21:40:46.420Z,95200.69
2023-03-28T21:43:12.755Z,95202.44
2023-03-28T21:45:39.186Z,95194.38
2023-03-28T21:48:05.520Z,95191.90
2023-03-28T21:50:31.905Z,95188.17
2023-03-28T21:52:58.256Z,95189.09
2023-03-28T21:55:24.665Z,95189.19
2023-03-28T21:57:51.017Z,95196.45
2023-03-28T22:00:17.424Z,95199.16
2023-03-28T22:02:43.869Z,95207.34
2023-03-28T22:05:22.028Z,95204.41
2023-03-28T22:07:36.559Z,95211.66
2023-03-28T22:10:02.968Z,95221.27
2023-03-28T22:12:29.321Z,95220.08
2023-03-28T22:14:55.885Z,95217.62
2023-03-28T22:17:22.238Z,95217.50
2023-03-28T22:19:48.637Z,95212.48
2023-03-28T22:22:14.993Z,95212.58
2023-03-28T22:24:41.386Z,95216.80
2023-03-28T22:27:07.743Z,95217.73
2023-03-28T22:29:34.145Z,95219.60
2023-03-28T22:32:00.494Z,95219.11
2023-03-28T22:34:26.887Z,95216.66
2023-03-28T22:36:53.275Z,95222.17
2023-03-28T22:39:19.666Z,95223.56
2023-03-28T22:41:46.102Z,95224.98
2023-03-28T22:44:12.478Z,95227.05
2023-03-28T22:46:38.957Z,95224.98
2023-03-28T22:49:05.291Z,95229.03
2023-03-28T22:51:31.642Z,95225.16
2023-03-28T22:53:58.046Z,95228.79
2023-03-28T22:56:24.505Z,95225.85
2023-03-28T22:58:50.823Z,95225.36
2023-03-28T23:01:17.211Z,95230.73
2023-03-28T23:03:43.577Z,95226.87
2023-03-28T23:06:09.930Z,95229.93
2023-03-28T23:08:36.337Z,95230.39
2023-03-28T23:11:02.924Z,95232.60
2023-03-28T23:13:29.100Z,95230.62
2023-03-28T23:15:55.572Z,95241.70
2023-03-28T23:18:21.870Z,95237.05
2023-03-28T23:20:48.207Z,95244.86
2023-03-28T23:23:14.681Z,95244.86
2023-03-28T23:25:40.989Z,95247.20
2023-03-28T23:28:07.400Z,95245.91
2023-03-28T23:30:33.843Z,95249.77
2023-03-28T23:33:00.327Z,95252.34
2023-03-28T23:35:26.618Z,95254.55
2023-03-28T23:37:53.059Z,95246.13
2023-03-28T23:40:19.392Z,95255.14
2023-03-28T23:42:45.821Z,95259.46
2023-03-28T23:45:12.213Z,95262.86
2023-03-28T23:47:38.640Z,95259.00
2023-03-28T23:50:04.954Z,95271.14
2023-03-28T23:52:31.367Z,95269.97
2023-03-28T23:54:58.629Z,95269.14
2023-03-28T23:57:25.173Z,95270.06
2023-03-28T23:59:51.376Z,95275.22
